| time (UTC) | temp C | wind direction | speed KPH | gust KPH | rain 1hr cm | rain 24hr cm | rain mn cm | humidity % | barometer mb |
| 20260510225650 | 4 | 0.0 | 0.0 | 0.00 | 0.23 | 0.23 | 71 | 1012.3 | |
| 20260510224646 | 4 | 0.0 | 0.0 | 0.00 | 0.23 | 0.23 | 70 | 1012.3 | |
| 20260510223642 | 4 | 0.0 | 0.0 | 0.00 | 0.23 | 0.23 | 69 | 1012.4 | |
| 20260510222657 | 4 | 0.0 | 0.0 | 0.00 | 0.23 | 0.23 | 68 | 1012.5 | |
| 20260510221631 | 5 | 180 | 1.6 | 3.2 | 0.00 | 0.23 | 0.23 | 67 | 1012.7 |
| 20260510220628 | 5 | 225 | 3.2 | 3.2 | 0.00 | 0.23 | 0.23 | 67 | 1012.8 |
| 20260510215644 | 5 | 225 | 1.6 | 3.2 | 0.00 | 0.23 | 0.23 | 65 | 1012.9 |
| 20260510214700 | 5 | 180 | 3.2 | 6.4 | 0.00 | 0.23 | 0.23 | 64 | 1013.0 |
| 20260510213635 | 6 | 0.0 | 1.6 | 0.00 | 0.23 | 0.23 | 63 | 1013.1 | |
| 20260510212610 | 6 | 135 | 3.2 | 3.2 | 0.00 | 0.23 | 0.23 | 63 | 1013.0 |
| 20260510211605 | 6 | 326 | 3.2 | 6.4 | 0.00 | 0.23 | 0.23 | 63 | 1013.1 |
| 20260510210620 | 6 | 263 | 4.8 | 6.4 | 0.00 | 0.23 | 0.23 | 62 | 1013.3 |
| 20260510205555 | 6 | 199 | 1.6 | 3.2 | 0.00 | 0.23 | 0.23 | 61 | 1013.2 |
| 20260510204650 | 7 | 270 | 3.2 | 6.4 | 0.00 | 0.23 | 0.23 | 58 | 1013.0 |
| 20260510203646 | 7 | 6.4 | 8.0 | 0.00 | 0.23 | 0.23 | 54 | 1013.1 | |
| 20260510202642 | 7 | 11.3 | 16.1 | 0.00 | 0.23 | 0.23 | 54 | 1013.0 | |
| 20260510201638 | 8 | 0 | 11.3 | 16.1 | 0.00 | 0.23 | 0.23 | 53 | 1012.9 |
| 20260510200653 | 8 | 0 | 12.9 | 17.7 | 0.00 | 0.23 | 0.23 | 53 | 1013.0 |
| 20260510195628 | 8 | 325 | 14.5 | 17.7 | 0.00 | 0.23 | 0.23 | 53 | 1013.0 |
| 20260510194624 | 9 | 12.9 | 17.7 | 0.00 | 0.23 | 0.23 | 54 | 1013.1 | |
| 20260510193619 | 10 | 349 | 11.3 | 17.7 | 0.00 | 0.23 | 0.23 | 56 | 1013.1 |
| 20260510192616 | 10 | 0 | 12.9 | 19.3 | 0.00 | 0.23 | 0.23 | 57 | 1013.0 |
| 20260510191612 | 10 | 334 | 14.5 | 19.3 | 0.00 | 0.23 | 0.23 | 59 | 1013.1 |
| 20260510190628 | 10 | 0 | 14.5 | 19.3 | 0.00 | 0.23 | 0.23 | 60 | 1013.1 |
| 20260510185622 | 10 | 9.7 | 14.5 | 0.00 | 0.23 | 0.23 | 57 | 1013.1 | |
| 20260510184558 | 11 | 0 | 6.4 | 9.7 | 0.00 | 0.23 | 0.23 | 58 | 1013.0 |
| 20260510183553 | 10 | 9.7 | 12.9 | 0.00 | 0.23 | 0.23 | 56 | 1013.1 | |
| 20260510182548 | 11 | 0 | 14.5 | 20.9 | 0.00 | 0.23 | 0.23 | 52 | 1013.2 |
| 20260510181644 | 12 | 35 | 9.7 | 19.3 | 0.00 | 0.23 | 0.23 | 51 | 1013.2 |
| 20260510180639 | 11 | 0 | 8.0 | 12.9 | 0.00 | 0.23 | 0.23 | 53 | 1013.3 |
| 20260510175635 | 11 | 52 | 9.7 | 16.1 | 0.00 | 0.23 | 0.23 | 51 | 1013.2 |
| 20260510174632 | 11 | 24 | 16.1 | 24.1 | 0.00 | 0.23 | 0.23 | 48 | 1013.3 |
| 20260510173627 | 12 | 16.1 | 22.5 | 0.00 | 0.23 | 0.23 | 41 | 1013.4 | |
| 20260510172622 | 15 | 11.3 | 19.3 | 0.00 | 0.23 | 0.23 | 40 | 1013.4 | |
| 20260510171617 | 13 | 28 | 9.7 | 14.5 | 0.00 | 0.23 | 0.23 | 42 | 1013.6 |
| 20260510170632 | 12 | 68 | 8.0 | 12.9 | 0.00 | 0.23 | 0.23 | 47 | 1013.6 |
| 20260510165627 | 11 | 20 | 12.9 | 19.3 | 0.00 | 0.23 | 0.23 | 47 | 1013.8 |
| 20260510164602 | 12 | 90 | 11.3 | 19.3 | 0.00 | 0.23 | 0.23 | 43 | 1014.0 |
| 20260510163558 | 13 | 9.7 | 16.1 | 0.00 | 0.23 | 0.23 | 40 | 1014.1 | |
| 20260510162554 | 15 | 90 | 11.3 | 22.5 | 0.00 | 0.23 | 0.23 | 40 | 1014.1 |
| 20260510161550 | 13 | 18 | 20.9 | 27.4 | 0.00 | 0.28 | 0.23 | 37 | 1014.1 |
| 20260510160545 | 14 | 9.7 | 17.7 | 0.00 | 0.28 | 0.23 | 41 | 1014.1 | |
| 20260510155641 | 12 | 81 | 14.5 | 22.5 | 0.00 | 0.28 | 0.23 | 44 | 1014.3 |
| 20260510154635 | 13 | 350 | 22.5 | 40.2 | 0.00 | 0.28 | 0.23 | 39 | 1014.3 |
| 20260510153631 | 15 | 101 | 6.4 | 11.3 | 0.00 | 0.28 | 0.23 | 40 | 1014.5 |
| 20260510152627 | 13 | 35 | 11.3 | 17.7 | 0.00 | 0.28 | 0.23 | 44 | 1014.6 |
| 20260510151624 | 13 | 344 | 19.3 | 29.0 | 0.00 | 0.28 | 0.23 | 41 | 1014.6 |
| 20260510150700 | 13 | 254 | 8.0 | 12.9 | 0.00 | 0.28 | 0.23 | 41 | 1014.7 |
| 20260510145616 | 15 | 90 | 6.4 | 8.0 | 0.00 | 0.28 | 0.23 | 40 | 1014.7 |
| 20260510144612 | 13 | 90 | 8.0 | 16.1 | 0.00 | 0.28 | 0.23 | 42 | 1014.9 |
| 20260510143608 | 13 | 90 | 12.9 | 19.3 | 0.00 | 0.28 | 0.23 | 41 | 1015.0 |
| 20260510142622 | 14 | 57 | 16.1 | 27.4 | 0.00 | 0.28 | 0.23 | 43 | 1015.0 |
| 20260510141557 | 13 | 40 | 8.0 | 14.5 | 0.00 | 0.28 | 0.23 | 43 | 1015.2 |
| 20260510140553 | 13 | 90 | 12.9 | 24.1 | 0.00 | 0.28 | 0.23 | 43 | 1015.2 |
| 20260510135549 | 13 | 0 | 14.5 | 22.5 | 0.00 | 0.28 | 0.23 | 44 | 1015.3 |
| 20260510134545 | 15 | 6.4 | 8.0 | 0.00 | 0.28 | 0.23 | 42 | 1015.3 | |
| 20260510133540 | 13 | 0 | 17.7 | 25.7 | 0.00 | 0.28 | 0.23 | 45 | 1015.4 |
| 20260510132636 | 12 | 51 | 17.7 | 24.1 | 0.00 | 0.28 | 0.23 | 43 | 1015.5 |
| 20260510131631 | 13 | 107 | 8.0 | 20.9 | 0.00 | 0.28 | 0.23 | 48 | 1015.5 |
| 20260510130626 | 12 | 0 | 14.5 | 25.7 | 0.00 | 0.28 | 0.23 | 45 | 1015.8 |
| 20260510125621 | 14 | 90 | 12.9 | 25.7 | 0.00 | 0.28 | 0.23 | 48 | 1015.9 |
| 20260510124616 | 13 | 90 | 6.4 | 17.7 | 0.00 | 0.28 | 0.23 | 50 | 1015.9 |
| 20260510123612 | 13 | 90 | 8.0 | 14.5 | 0.00 | 0.28 | 0.23 | 51 | 1016.0 |
| 20260510122608 | 13 | 90 | 8.0 | 17.7 | 0.00 | 0.28 | 0.23 | 52 | 1016.1 |
| 20260510121604 | -17 | 0.0 | 0.0 | 0.00 | 0.28 | 0.23 | 1016.3 | ||
| 20260510120559 | 12 | 9.7 | 16.1 | 0.00 | 0.28 | 0.23 | 54 | 1016.2 | |
| 20260510115554 | 12 | 90 | 9.7 | 16.1 | 0.00 | 0.28 | 0.23 | 52 | 1016.2 |
| 20260510114549 | 12 | 45 | 9.7 | 16.1 | 0.00 | 0.28 | 0.23 | 57 | 1016.4 |
| 20260510113545 | 11 | 0 | 12.9 | 17.7 | 0.00 | 0.28 | 0.23 | 60 | 1016.5 |
| 20260510112601 | 10 | 16.1 | 20.9 | 0.00 | 0.28 | 0.23 | 58 | 1016.7 | |
| 20260510111537 | 12 | 90 | 9.7 | 17.7 | 0.00 | 0.28 | 0.23 | 58 | 1016.8 |
| 20260510110634 | 12 | 90 | 9.7 | 14.5 | 0.00 | 0.28 | 0.23 | 58 | 1017.0 |
| 20260510105630 | 11 | 105 | 12.9 | 22.5 | 0.00 | 0.28 | 0.23 | 63 | 1017.0 |
| 20260510104626 | 11 | 90 | 11.3 | 12.9 | 0.00 | 0.28 | 0.23 | 61 | 1017.2 |
| 20260510103622 | 11 | 90 | 9.7 | 16.1 | 0.00 | 0.28 | 0.23 | 66 | 1017.2 |
| 20260510102616 | 10 | 90 | 9.7 | 17.7 | 0.00 | 0.28 | 0.23 | 66 | 1017.4 |
| 20260510101611 | 10 | 90 | 8.0 | 12.9 | 0.00 | 0.28 | 0.23 | 68 | 1017.4 |
| 20260510100607 | 10 | 90 | 6.4 | 12.9 | 0.00 | 0.28 | 0.23 | 69 | 1017.4 |
| 20260510095623 | 9 | 90 | 8.0 | 12.9 | 0.00 | 0.28 | 0.23 | 70 | 1017.4 |
| 20260510094559 | 9 | 90 | 6.4 | 19.3 | 0.00 | 0.28 | 0.23 | 70 | 1017.5 |
| 20260510093635 | 8 | 17 | 6.4 | 17.7 | 0.00 | 0.28 | 0.23 | 71 | 1017.6 |
| 20260510092550 | 8 | 90 | 14.5 | 24.1 | 0.00 | 0.28 | 0.23 | 72 | 1017.7 |
| 20260510091605 | 8 | 69 | 8.0 | 17.7 | 0.00 | 0.28 | 0.23 | 73 | 1017.6 |
| 20260510090540 | 8 | 45 | 9.7 | 16.1 | 0.00 | 0.28 | 0.23 | 74 | 1017.8 |
| 20260510085535 | 8 | 90 | 8.0 | 17.7 | 0.03 | 0.28 | 0.23 | 74 | 1017.8 |
| 20260510084630 | 7 | 90 | 9.7 | 17.7 | 0.03 | 0.28 | 0.23 | 75 | 1017.7 |
| 20260510083626 | 7 | 90 | 6.4 | 12.9 | 0.03 | 0.28 | 0.23 | 75 | 1017.8 |
| 20260510082642 | 7 | 90 | 4.8 | 6.4 | 0.03 | 0.28 | 0.23 | 76 | 1017.8 |
| 20260510081618 | 7 | 90 | 4.8 | 12.9 | 0.03 | 0.28 | 0.23 | 76 | 1017.8 |
| 20260510080613 | 7 | 6.4 | 12.9 | 0.03 | 0.28 | 0.23 | 76 | 1017.7 | |
| 20260510075608 | -17 | 0.0 | 0.0 | 0.00 | 0.23 | 0.20 | 1017.7 | ||
| 20260510074623 | 7 | 8.0 | 11.3 | 0.00 | 0.23 | 0.20 | 85 | 1017.6 | |
| 20260510073559 | 7 | 6.4 | 6.4 | 0.00 | 0.23 | 0.20 | 85 | 1017.6 | |
| 20260510072556 | 7 | 13 | 17.7 | 25.7 | 0.00 | 0.23 | 0.20 | 86 | 1017.6 |
| 20260510071611 | 7 | 9 | 11.3 | 17.7 | 0.00 | 0.23 | 0.20 | 87 | 1017.7 |
| 20260510070608 | 6 | 11.3 | 16.1 | 0.00 | 0.23 | 0.20 | 87 | 1017.7 | |
| 20260510065544 | 6 | 0 | 16.1 | 19.3 | 0.00 | 0.23 | 0.20 | 88 | 1017.6 |
| 20260510064540 | 6 | 0 | 9.7 | 25.7 | 0.00 | 0.23 | 0.20 | 89 | 1017.5 |
| 20260510063536 | 6 | 9.7 | 12.9 | 0.00 | 0.23 | 0.20 | 89 | 1017.5 | |
| 20260510062531 | 6 | 0 | 14.5 | 24.1 | 0.00 | 0.23 | 0.20 | 89 | 1017.4 |
| 20260510061526 | 6 | 14.5 | 22.5 | 0.00 | 0.23 | 0.20 | 89 | 1017.5 | |
| 20260510060622 | 6 | 90 | 16.1 | 20.9 | 0.00 | 0.23 | 0.20 | 89 | 1017.4 |
| 20260510055618 | 6 | 0 | 11.3 | 19.3 | 0.00 | 0.23 | 0.20 | 89 | 1017.4 |
| 20260510054634 | 6 | 17.7 | 25.7 | 0.00 | 0.23 | 0.20 | 90 | 1017.4 | |
| 20260510053609 | 6 | 350 | 16.1 | 24.1 | 0.00 | 0.23 | 0.20 | 91 | 1017.4 |
| 20260510052624 | 6 | 90 | 14.5 | 19.3 | 0.00 | 0.23 | 0.20 | 91 | 1017.4 |
| 20260510051559 | 6 | 0 | 16.1 | 27.4 | 0.00 | 0.23 | 0.20 | 91 | 1017.4 |
| 20260510050634 | 6 | 90 | 9.7 | 17.7 | 0.00 | 0.23 | 0.20 | 92 | 1017.4 |
| 20260510045549 | 6 | 90 | 8.0 | 14.5 | 0.00 | 0.23 | 0.20 | 92 | 1017.4 |
| 20260510044544 | 6 | 13 | 9.7 | 17.7 | 0.00 | 0.23 | 0.20 | 93 | 1017.5 |
| 20260510043540 | 6 | 90 | 6.4 | 17.7 | 0.00 | 0.23 | 0.20 | 93 | 1017.5 |
| 20260510042536 | 6 | 0 | 9.7 | 17.7 | 0.00 | 0.23 | 0.20 | 94 | 1017.6 |
| 20260510041552 | 6 | 90 | 11.3 | 14.5 | 0.00 | 0.23 | 0.20 | 95 | 1017.6 |
| 20260510040528 | 6 | 8.0 | 17.7 | 0.03 | 0.23 | 0.20 | 95 | 1017.7 | |
| 20260510035522 | 6 | 0 | 4.8 | 8.0 | 0.05 | 0.23 | 0.20 | 95 | 1017.6 |
| 20260510034617 | 6 | 90 | 11.3 | 17.7 | 0.10 | 0.23 | 0.20 | 95 | 1017.6 |
| 20260510033613 | 6 | 0 | 6.4 | 12.9 | 0.13 | 0.23 | 0.20 | 95 | 1017.8 |
| 20260510032609 | 6 | 90 | 8.0 | 16.1 | 0.15 | 0.23 | 0.20 | 95 | 1017.9 |
| 20260510031626 | 6 | 90 | 6.4 | 17.7 | 0.15 | 0.23 | 0.20 | 95 | 1017.9 |
| 20260510030622 | 6 | 90 | 9.7 | 17.7 | 0.13 | 0.20 | 0.18 | 94 | 1017.8 |
| 20260510025618 | 6 | 82 | 6.4 | 11.3 | 0.13 | 0.18 | 0.15 | 94 | 1017.9 |
| 20260510024614 | 6 | 270 | 12.9 | 17.7 | 0.10 | 0.15 | 0.13 | 94 | 1018.0 |
| 20260510023549 | 6 | 37 | 11.3 | 17.7 | 0.05 | 0.13 | 0.10 | 94 | 1017.9 |
| 20260510022543 | 6 | 14.5 | 24.1 | 0.03 | 0.10 | 0.05 | 94 | 1018.1 | |
| 20260510021539 | 6 | 90 | 8.0 | 12.9 | 0.03 | 0.10 | 0.05 | 94 | 1018.1 |
| 20260510020535 | 6 | 0 | 8.0 | 14.5 | 0.03 | 0.10 | 0.05 | 94 | 1018.2 |
| 20260510015531 | 6 | 58 | 8.0 | 12.9 | 0.03 | 0.05 | 0.03 | 94 | 1018.1 |
| 20260510014527 | 6 | 0 | 12.9 | 17.7 | 0.03 | 0.05 | 0.03 | 94 | 1018.0 |
| 20260510013542 | 7 | 322 | 9.7 | 14.5 | 0.03 | 0.05 | 0.03 | 94 | 1018.0 |
| 20260510012517 | 7 | 339 | 9.7 | 12.9 | 0.03 | 0.05 | 0.03 | 94 | 1018.2 |
| 20260510011613 | 7 | 78 | 8.0 | 12.9 | 0.03 | 0.05 | 0.03 | 93 | 1018.1 |
| 20260510010627 | 7 | 0 | 9.7 | 19.3 | 0.03 | 0.05 | 0.03 | 93 | 1018.1 |
| 20260510005602 | 7 | 11.3 | 16.1 | 0.00 | 0.03 | 0.00 | 93 | 1018.0 | |
| 20260510004557 | 8 | 90 | 8.0 | 12.9 | 0.00 | 0.03 | 0.00 | 86 | 1019.2 |
| 20260510003553 | 7 | 90 | 8.0 | 12.9 | 0.00 | 0.03 | 0.00 | 93 | 1018.1 |
| 20260510002549 | 7 | 90 | 8.0 | 12.9 | 0.00 | 0.03 | 0.00 | 93 | 1018.1 |
| 20260510001606 | -17 | 0.0 | 0.0 | 0.00 | 0.03 | 0.00 | 1018.1 | ||
| 20260510000541 | -17 | 0.0 | 0.0 | 0.00 | 0.03 | 0.00 | 1017.9 | ||
| 20260509235536 | 7 | 90 | 12.9 | 17.7 | 0.00 | 0.03 | 0.00 | 88 | 1018.0 |
| 20260509234532 | 7 | 90 | 12.9 | 17.7 | 0.00 | 0.03 | 0.00 | 88 | 1018.2 |
| 20260509233528 | -17 | 0.0 | 0.0 | 0.00 | 0.03 | 0.00 | 1018.2 | ||
| 20260509232524 | -17 | 0.0 | 0.0 | 0.00 | 0.03 | 0.00 | 1018.1 | ||
| 20260509231521 | -17 | 0.0 | 0.0 | 0.00 | 0.03 | 0.00 | 1018.1 | ||
| 20260509230517 | -17 | 0.0 | 0.0 | 0.00 | 0.03 | 0.00 | 1018.1 |